Time;durP1;ratioP1;P1;durP2;ratioP2;P2;SDS_P1;SDS_P2;PMS_P1;PMS_P2;Temp;Humidity;BMP_temperature;BMP_pressure;BME280_temperature;BME280_humidity;BME280_pressure;Samples;Min_cycle;Max_cycle;Signal;HPM_P1;HPM_P2
2021/09/05 00:01:58;;;;;;;13.77;8.25;;;15.90;91.10;;;;;;6190478;23;20128;-86
2021/09/05 00:04:24;;;;;;;16.00;8.80;;;15.90;91.20;;;;;;6191303;23;20096;-87
2021/09/05 00:06:50;;;;;;;13.77;7.82;;;15.90;91.00;;;;;;6191867;23;20021;-86
2021/09/05 00:09:17;;;;;;;13.82;8.48;;;15.90;91.10;;;;;;6191552;23;20096;-86
2021/09/05 00:11:45;;;;;;;14.20;8.77;;;15.90;91.30;;;;;;6219170;23;20092;-86
2021/09/05 00:14:11;;;;;;;14.98;8.50;;;15.90;91.40;;;;;;6191803;23;20048;-87
2021/09/05 00:16:36;;;;;;;15.85;8.60;;;15.80;91.50;;;;;;6190469;23;20013;-86
2021/09/05 00:19:02;;;;;;;16.38;9.25;;;15.90;91.40;;;;;;6191489;23;20027;-86
2021/09/05 00:21:27;;;;;;;16.27;8.93;;;15.80;91.40;;;;;;6190367;23;20318;-86
2021/09/05 00:23:53;;;;;;;14.90;8.75;;;15.80;91.80;;;;;;6188922;23;20078;-86
2021/09/05 00:26:19;;;;;;;14.85;8.80;;;15.80;91.60;;;;;;6190877;23;20023;-85
2021/09/05 00:28:44;;;;;;;14.30;8.45;;;15.80;91.60;;;;;;6189883;23;20036;-86
2021/09/05 00:31:10;;;;;;;15.45;9.30;;;15.70;91.50;;;;;;6189771;23;20015;-86
2021/09/05 00:33:36;;;;;;;15.23;8.95;;;15.70;91.50;;;;;;6190879;23;20063;-86
2021/09/05 00:36:02;;;;;;;14.70;8.88;;;15.70;91.50;;;;;;6191067;23;20015;-86
2021/09/05 00:38:27;;;;;;;15.27;9.23;;;15.70;91.60;;;;;;6189944;23;20103;-86
2021/09/05 00:40:53;;;;;;;15.40;9.15;;;15.60;91.50;;;;;;6190858;23;20016;-86
2021/09/05 00:43:19;;;;;;;15.13;9.75;;;15.60;91.60;;;;;;6190431;23;20116;-87
2021/09/05 00:45:44;;;;;;;16.80;9.00;;;15.50;91.60;;;;;;6189668;23;20024;-86
2021/09/05 00:48:10;;;;;;;15.23;9.40;;;15.60;91.80;;;;;;6191167;23;20024;-86
2021/09/05 00:50:36;;;;;;;16.00;9.63;;;15.50;91.90;;;;;;6190701;23;20071;-86
2021/09/05 00:53:04;;;;;;;15.63;9.48;;;15.50;91.90;;;;;;6190078;23;20024;-86
2021/09/05 00:55:34;;;;;;;15.43;9.82;;;15.50;92.00;;;;;;6190726;23;20347;-87
2021/09/05 00:58:00;;;;;;;14.40;9.18;;;15.50;92.10;;;;;;6190272;23;20076;-86
2021/09/05 01:00:25;;;;;;;15.25;9.32;;;15.40;92.10;;;;;;6190504;23;20114;-86
2021/09/05 01:02:51;;;;;;;16.08;9.93;;;15.40;92.10;;;;;;6190728;23;20021;-86
2021/09/05 01:05:17;;;;;;;16.77;9.15;;;15.40;92.00;;;;;;6184640;23;20024;-86
2021/09/05 01:07:42;;;;;;;15.88;10.30;;;15.30;91.80;;;;;;6185968;23;20024;-87
2021/09/05 01:10:10;;;;;;;15.55;9.43;;;15.40;91.70;;;;;;6186136;23;20071;-87
2021/09/05 01:12:36;;;;;;;15.98;9.50;;;15.30;91.60;;;;;;6184502;23;20082;-87
2021/09/05 01:15:01;;;;;;;14.30;9.32;;;15.30;91.70;;;;;;6185761;23;20523;-86
2021/09/05 01:17:27;;;;;;;16.42;9.80;;;15.30;91.50;;;;;;6185990;23;20013;-86
2021/09/05 01:19:52;;;;;;;14.93;10.18;;;15.20;91.70;;;;;;6184023;23;20024;-86
2021/09/05 01:22:18;;;;;;;17.20;10.32;;;15.20;91.80;;;;;;6185731;23;20463;-86
2021/09/05 01:24:44;;;;;;;16.45;10.15;;;15.10;91.80;;;;;;6185839;23;20405;-86
2021/09/05 01:27:09;;;;;;;18.33;10.70;;;15.10;91.90;;;;;;6184693;23;20020;-85
2021/09/05 01:29:35;;;;;;;16.90;10.10;;;15.10;92.10;;;;;;6185927;23;20086;-86
2021/09/05 01:32:00;;;;;;;15.98;10.00;;;15.10;92.30;;;;;;6187941;23;20021;-86
2021/09/05 01:34:26;;;;;;;15.88;9.60;;;15.10;92.10;;;;;;6185148;23;20426;-86
2021/09/05 01:36:54;;;;;;;18.02;10.32;;;15.00;92.10;;;;;;6184556;23;20048;-87
2021/09/05 01:39:21;;;;;;;17.70;10.38;;;15.00;92.30;;;;;;6185639;23;20017;-86
2021/09/05 01:41:48;;;;;;;17.85;10.73;;;15.00;92.40;;;;;;6184473;23;20099;-87
2021/09/05 01:44:17;;;;;;;16.30;10.30;;;14.90;92.30;;;;;;6185397;23;20071;-87
2021/09/05 01:46:42;;;;;;;19.08;10.55;;;14.90;92.40;;;;;;6183702;23;20009;-87
2021/09/05 01:49:08;;;;;;;15.77;10.20;;;14.90;92.40;;;;;;6184956;23;20163;-86
2021/09/05 01:51:34;;;;;;;17.58;10.02;;;14.90;92.50;;;;;;6185453;23;20009;-86
2021/09/05 01:54:00;;;;;;;15.27;10.90;;;14.90;92.60;;;;;;6185745;23;20036;-86
2021/09/05 01:56:31;;;;;;;17.75;10.82;;;14.90;92.60;;;;;;6184141;23;20048;-87
2021/09/05 01:58:58;;;;;;;17.88;10.85;;;14.90;92.40;;;;;;6185483;23;20438;-85
2021/09/05 02:01:24;;;;;;;16.58;11.13;;;14.80;92.30;;;;;;6185487;23;20017;-85
2021/09/05 02:03:50;;;;;;;15.95;10.60;;;14.80;92.30;;;;;;6186908;23;20021;-86
2021/09/05 02:06:15;;;;;;;18.13;10.60;;;14.80;92.10;;;;;;6185322;23;20143;-86
2021/09/05 02:08:41;;;;;;;16.70;10.15;;;14.80;92.20;;;;;;6184702;23;20025;-87
2021/09/05 02:11:06;;;;;;;17.20;10.95;;;14.80;92.20;;;;;;6185425;23;20010;-86
2021/09/05 02:13:33;;;;;;;17.38;10.77;;;14.70;92.00;;;;;;6185382;23;20083;-86
2021/09/05 02:15:59;;;;;;;16.58;10.88;;;14.70;92.20;;;;;;6183524;23;20093;-86
2021/09/05 02:18:25;;;;;;;17.58;11.45;;;14.70;92.10;;;;;;6185243;23;20469;-86
2021/09/05 02:20:51;;;;;;;18.08;10.93;;;14.60;92.30;;;;;;6185029;23;20028;-87
2021/09/05 02:23:17;;;;;;;17.50;11.27;;;14.60;92.50;;;;;;6184075;23;20021;-86
2021/09/05 02:25:42;;;;;;;16.00;10.82;;;14.60;92.40;;;;;;6185028;23;20014;-85
2021/09/05 02:28:08;;;;;;;16.67;10.57;;;14.60;92.50;;;;;;6185262;23;20064;-85
2021/09/05 02:30:35;;;;;;;16.35;10.43;;;14.60;92.50;;;;;;6184083;23;20021;-85
2021/09/05 02:33:04;;;;;;;18.33;11.68;;;14.50;92.20;;;;;;6186315;23;20020;-86
2021/09/05 02:35:29;;;;;;;15.20;10.52;;;14.50;92.20;;;;;;6184739;23;20445;-85
2021/09/05 02:37:55;;;;;;;16.42;10.63;;;14.50;92.00;;;;;;6183346;23;20020;-86
2021/09/05 02:40:21;;;;;;;17.80;11.57;;;14.40;92.10;;;;;;6185119;23;20025;-86
2021/09/05 02:42:46;;;;;;;17.10;10.77;;;14.40;92.30;;;;;;6184954;23;20032;-86
2021/09/05 02:45:12;;;;;;;17.27;11.80;;;14.40;92.50;;;;;;6184146;23;20027;-87
2021/09/05 02:47:38;;;;;;;18.02;11.35;;;14.40;92.50;;;;;;6186742;23;20017;-86
2021/09/05 02:50:05;;;;;;;16.27;11.23;;;14.30;92.50;;;;;;6187117;23;20013;-86
2021/09/05 02:52:31;;;;;;;16.58;11.27;;;14.30;92.60;;;;;;6186442;23;20021;-86
2021/09/05 02:54:56;;;;;;;17.38;11.77;;;14.30;92.60;;;;;;6187269;23;20009;-86
2021/09/05 02:57:22;;;;;;;16.73;11.50;;;14.30;92.70;;;;;;6186742;23;20457;-86
2021/09/05 02:59:48;;;;;;;16.50;11.05;;;14.20;92.60;;;;;;6187233;23;20017;-86
2021/09/05 03:02:13;;;;;;;16.33;11.32;;;14.20;92.50;;;;;;6187254;23;20013;-86
2021/09/05 03:04:39;;;;;;;18.77;11.52;;;14.20;92.50;;;;;;6185939;23;20096;-86
2021/09/05 03:07:05;;;;;;;18.67;12.07;;;14.20;92.50;;;;;;6187057;23;20454;-85
2021/09/05 03:09:30;;;;;;;19.08;11.95;;;14.20;92.70;;;;;;6187287;23;20021;-86
2021/09/05 03:11:56;;;;;;;18.23;11.52;;;14.20;92.70;;;;;;6187848;23;20513;-86
2021/09/05 03:14:21;;;;;;;16.63;11.35;;;14.10;92.50;;;;;;6186560;23;20021;-85
2021/09/05 03:16:47;;;;;;;18.98;11.95;;;14.10;92.70;;;;;;6188151;23;20016;-87
2021/09/05 03:19:13;;;;;;;17.45;12.23;;;14.10;92.70;;;;;;6186848;23;20021;-86
2021/09/05 03:21:40;;;;;;;15.38;10.85;;;14.10;92.80;;;;;;6186987;23;20015;-86
2021/09/05 03:24:06;;;;;;;17.63;11.63;;;14.10;92.80;;;;;;6186859;23;20104;-86
2021/09/05 03:26:33;;;;;;;18.90;11.93;;;14.10;92.90;;;;;;6187526;23;20055;-85
2021/09/05 03:28:59;;;;;;;16.92;10.93;;;14.00;92.80;;;;;;6187900;23;20001;-86
2021/09/05 03:31:25;;;;;;;17.27;11.30;;;14.00;92.80;;;;;;6186927;23;20392;-86
2021/09/05 03:33:50;;;;;;;17.10;11.38;;;14.00;92.60;;;;;;6186310;23;20068;-85
2021/09/05 03:36:16;;;;;;;15.15;10.80;;;14.00;92.50;;;;;;6186647;23;20377;-86
2021/09/05 03:38:41;;;;;;;16.80;11.40;;;14.00;92.60;;;;;;6187002;23;20016;-85
2021/09/05 03:41:07;;;;;;;18.45;12.05;;;13.90;92.40;;;;;;6186641;23;20040;-85
2021/09/05 03:43:32;;;;;;;17.17;11.73;;;13.90;92.50;;;;;;6187573;23;20021;-85
2021/09/05 03:45:58;;;;;;;16.15;11.25;;;13.90;92.60;;;;;;6188929;23;20024;-86
2021/09/05 03:48:23;;;;;;;16.38;11.25;;;13.90;92.70;;;;;;6187023;23;20009;-86
2021/09/05 03:50:49;;;;;;;17.90;11.75;;;13.80;92.60;;;;;;6186787;23;20024;-86
2021/09/05 03:53:14;;;;;;;16.25;11.68;;;13.80;92.60;;;;;;6186397;23;20027;-86
2021/09/05 03:55:40;;;;;;;18.40;11.20;;;13.80;92.60;;;;;;6185076;23;20013;-86
2021/09/05 03:58:07;;;;;;;16.08;10.88;;;13.80;92.50;;;;;;6185513;23;20445;-86
2021/09/05 04:00:33;;;;;;;17.60;11.02;;;13.70;92.90;;;;;;6186061;23;20025;-85
2021/09/05 04:02:59;;;;;;;14.93;10.68;;;13.70;92.60;;;;;;6185882;23;20472;-85
2021/09/05 04:05:25;;;;;;;14.30;10.38;;;13.70;92.90;;;;;;6186978;23;20028;-85
2021/09/05 04:10:29;;;;;;;16.33;10.77;;;13.70;92.80;;;;;;6186412;23;20524;-86
2021/09/05 04:12:55;;;;;;;17.10;11.23;;;13.60;92.90;;;;;;6185923;23;20017;-85
2021/09/05 04:15:20;;;;;;;14.85;10.60;;;13.60;93.00;;;;;;6185452;23;20028;-86
2021/09/05 04:17:46;;;;;;;15.73;11.10;;;13.60;93.00;;;;;;6186330;23;20329;-85
2021/09/05 04:20:12;;;;;;;15.10;10.48;;;13.60;92.90;;;;;;6186712;23;20091;-84
2021/09/05 04:22:37;;;;;;;14.93;10.75;;;13.50;92.80;;;;;;6187627;23;20021;-85
2021/09/05 04:25:04;;;;;;;15.82;11.02;;;13.50;92.70;;;;;;6186325;23;20009;-86
2021/09/05 04:27:30;;;;;;;13.73;10.02;;;13.50;92.80;;;;;;6186385;23;20017;-86
2021/09/05 04:29:56;;;;;;;16.42;10.85;;;13.50;92.90;;;;;;6186029;23;20019;-87
2021/09/05 04:32:23;;;;;;;17.63;10.93;;;13.50;93.10;;;;;;6186009;23;20013;-86
2021/09/05 04:34:49;;;;;;;15.50;11.07;;;13.50;93.10;;;;;;6186098;23;20394;-86
2021/09/05 04:37:17;;;;;;;16.17;10.57;;;13.40;93.20;;;;;;6185591;23;20021;-87
2021/09/05 04:39:42;;;;;;;15.80;10.68;;;13.40;93.10;;;;;;6185683;23;20020;-87
2021/09/05 04:42:08;;;;;;;16.13;10.80;;;13.40;93.20;;;;;;6186385;23;20032;-87
2021/09/05 04:44:33;;;;;;;14.98;9.95;;;13.40;93.30;;;;;;6185104;23;20017;-86
2021/09/05 04:46:59;;;;;;;14.38;10.25;;;13.40;93.20;;;;;;6186085;23;20089;-86
2021/09/05 04:49:24;;;;;;;14.73;10.80;;;13.40;93.30;;;;;;6161330;23;20021;-86
2021/09/05 04:51:50;;;;;;;15.05;10.52;;;13.40;93.40;;;;;;6184446;23;20357;-87
2021/09/05 04:54:16;;;;;;;15.27;10.88;;;13.30;93.40;;;;;;6185835;23;20068;-86
2021/09/05 04:56:41;;;;;;;14.82;10.60;;;13.30;93.20;;;;;;6185965;23;20016;-86
2021/09/05 04:59:07;;;;;;;14.82;10.27;;;13.30;93.30;;;;;;6186569;23;20377;-86
2021/09/05 05:01:32;;;;;;;15.68;11.60;;;13.30;93.10;;;;;;6185408;23;20017;-87
2021/09/05 05:03:58;;;;;;;15.70;11.00;;;13.20;93.20;;;;;;6185807;23;20017;-86
2021/09/05 05:06:23;;;;;;;15.48;10.52;;;13.20;93.30;;;;;;6185079;23;20024;-87
2021/09/05 05:08:50;;;;;;;15.68;11.00;;;13.20;93.30;;;;;;6185496;23;20017;-87
2021/09/05 05:11:16;;;;;;;14.93;11.02;;;13.20;93.30;;;;;;6184624;23;20100;-86
2021/09/05 05:13:43;;;;;;;15.75;11.30;;;13.10;93.20;;;;;;6185816;23;20039;-87
2021/09/05 05:16:08;;;;;;;15.30;11.02;;;13.20;93.40;;;;;;6185827;23;20068;-86
2021/09/05 05:18:34;;;;;;;14.23;10.63;;;13.10;93.40;;;;;;6186848;23;20016;-86
2021/09/05 05:21:01;;;;;;;17.33;11.32;;;13.10;93.40;;;;;;6186010;23;20108;-86
2021/09/05 05:23:28;;;;;;;15.25;10.80;;;13.10;93.40;;;;;;6185865;23;20071;-86
2021/09/05 05:25:54;;;;;;;14.80;10.68;;;13.10;93.10;;;;;;6185051;23;20013;-86
2021/09/05 05:28:20;;;;;;;17.65;11.18;;;13.10;93.10;;;;;;6186002;23;20437;-86
2021/09/05 05:30:46;;;;;;;14.18;10.18;;;13.00;93.00;;;;;;6184733;23;20017;-86
2021/09/05 05:33:11;;;;;;;15.30;10.20;;;13.00;92.80;;;;;;6185427;23;20104;-86
2021/09/05 05:35:37;;;;;;;15.32;11.10;;;13.00;92.90;;;;;;6185349;23;20075;-85
2021/09/05 05:38:03;;;;;;;16.88;11.13;;;13.00;92.90;;;;;;6185920;23;20045;-85
2021/09/05 05:40:32;;;;;;;15.88;11.30;;;13.00;92.90;;;;;;6185254;23;20036;-85
2021/09/05 05:42:58;;;;;;;16.27;10.90;;;13.00;93.00;;;;;;6186063;23;20086;-85
2021/09/05 05:45:24;;;;;;;15.70;10.45;;;13.00;92.70;;;;;;6185804;23;20017;-85
2021/09/05 05:47:49;;;;;;;16.73;11.55;;;13.00;92.50;;;;;;6186385;23;20052;-84
2021/09/05 05:50:15;;;;;;;15.70;11.57;;;12.90;92.60;;;;;;6184961;23;20052;-85
2021/09/05 05:52:40;;;;;;;14.55;11.07;;;12.90;92.80;;;;;;6185450;23;20075;-85
2021/09/05 05:55:06;;;;;;;17.83;11.65;;;12.90;92.70;;;;;;6186613;23;20021;-85
2021/09/05 05:57:32;;;;;;;17.02;11.77;;;12.90;92.70;;;;;;6185683;23;20017;-85
2021/09/05 05:59:57;;;;;;;18.73;11.43;;;12.90;92.60;;;;;;6187407;23;20456;-84
2021/09/05 06:02:23;;;;;;;17.73;12.40;;;12.90;92.60;;;;;;6184965;23;20096;-85
2021/09/05 06:04:49;;;;;;;16.98;11.52;;;12.90;92.90;;;;;;6185164;23;20020;-85
2021/09/05 06:07:14;;;;;;;16.98;12.25;;;12.90;92.90;;;;;;6160715;23;20425;-85
2021/09/05 06:09:40;;;;;;;19.45;13.02;;;12.90;92.80;;;;;;6159386;23;20047;-85
2021/09/05 06:12:10;;;;;;;17.98;12.55;;;12.90;93.00;;;;;;6160942;23;20063;-84
2021/09/05 06:14:37;;;;;;;18.35;12.27;;;12.90;93.10;;;;;;6160401;23;20091;-85
2021/09/05 06:17:03;;;;;;;17.85;12.27;;;12.90;92.90;;;;;;6160717;23;20077;-84
2021/09/05 06:19:29;;;;;;;18.05;12.88;;;12.90;93.00;;;;;;6160784;23;20013;-85
2021/09/05 06:21:55;;;;;;;17.23;12.25;;;12.90;93.10;;;;;;6160742;23;20020;-85
2021/09/05 06:24:21;;;;;;;18.02;12.50;;;13.00;93.20;;;;;;6162650;23;20079;-85
2021/09/05 06:26:49;;;;;;;19.83;12.90;;;13.00;93.10;;;;;;6162559;23;20013;-85
2021/09/05 06:29:15;;;;;;;17.35;12.55;;;13.00;93.10;;;;;;6162451;23;20346;-85
2021/09/05 06:31:40;;;;;;;17.20;12.70;;;13.00;93.10;;;;;;6161082;23;20068;-85
2021/09/05 06:34:06;;;;;;;17.88;12.50;;;13.10;93.00;;;;;;6189058;23;20118;-84
2021/09/05 06:36:32;;;;;;;17.70;11.95;;;13.10;93.10;;;;;;6161447;23;20020;-84
2021/09/05 06:38:58;;;;;;;17.73;12.55;;;13.10;93.00;;;;;;6162620;23;20099;-85
2021/09/05 06:41:23;;;;;;;18.73;13.57;;;13.10;92.90;;;;;;6162618;23;20013;-84
2021/09/05 06:43:49;;;;;;;24.00;15.68;;;13.20;92.80;;;;;;6161080;23;20017;-85
2021/09/05 06:46:14;;;;;;;19.48;13.80;;;13.20;92.90;;;;;;6187750;23;20028;-84
2021/09/05 06:48:41;;;;;;;18.77;13.00;;;13.20;92.90;;;;;;6160872;23;20345;-83
2021/09/05 06:51:07;;;;;;;19.52;13.93;;;13.30;92.60;;;;;;6160615;23;20017;-82
2021/09/05 06:53:33;;;;;;;19.55;13.00;;;13.30;92.80;;;;;;6160053;23;20097;-82
2021/09/05 06:55:58;;;;;;;21.08;14.73;;;13.30;92.80;;;;;;6161348;23;20013;-82
2021/09/05 06:58:24;;;;;;;19.27;13.20;;;13.40;92.80;;;;;;6160700;23;20024;-83
2021/09/05 07:00:51;;;;;;;19.55;13.90;;;13.40;93.00;;;;;;6161733;23;20197;-81
2021/09/05 07:03:17;;;;;;;30.52;20.13;;;13.50;92.70;;;;;;6160628;23;20017;-81
2021/09/05 07:05:42;;;;;;;25.52;17.10;;;13.50;93.00;;;;;;6185979;23;20035;-79
2021/09/05 07:08:09;;;;;;;20.23;14.10;;;13.60;93.10;;;;;;6160908;23;20096;-79
2021/09/05 07:10:35;;;;;;;21.67;14.02;;;13.50;92.80;;;;;;6160540;23;20017;-80
2021/09/05 07:13:00;;;;;;;20.52;14.80;;;13.60;92.60;;;;;;6160139;23;20017;-79
2021/09/05 07:15:26;;;;;;;20.65;14.07;;;13.60;92.70;;;;;;6159680;23;20017;-80
2021/09/05 07:17:51;;;;;;;20.30;14.43;;;13.60;92.60;;;;;;6158935;23;20334;-80
2021/09/05 07:20:17;;;;;;;21.33;14.57;;;13.70;92.70;;;;;;6161071;23;20453;-80
2021/09/05 07:22:43;;;;;;;21.40;14.60;;;13.70;92.60;;;;;;6160613;23;20456;-80
2021/09/05 07:25:22;;;;;;;21.60;15.40;;;13.80;92.80;;;;;;6160093;23;20063;-83
2021/09/05 07:27:48;;;;;;;20.25;13.77;;;13.90;92.70;;;;;;6160910;23;20017;-80
2021/09/05 07:30:15;;;;;;;27.02;18.17;;;13.90;92.70;;;;;;6160984;23;20028;-81
2021/09/05 07:32:41;;;;;;;18.35;13.65;;;14.10;92.90;;;;;;6159454;23;20465;-80
2021/09/05 07:35:07;;;;;;;24.05;16.92;;;14.10;93.00;;;;;;6186859;23;20028;-81
2021/09/05 07:37:33;;;;;;;17.85;13.77;;;14.10;92.90;;;;;;6160136;23;20091;-81
2021/09/05 07:39:59;;;;;;;22.13;14.88;;;14.20;92.90;;;;;;6159840;23;20027;-81
2021/09/05 07:42:25;;;;;;;20.08;14.32;;;14.20;92.80;;;;;;6160536;23;20018;-81
2021/09/05 07:44:50;;;;;;;21.35;14.10;;;14.30;92.70;;;;;;6160650;23;20442;-84
2021/09/05 07:47:16;;;;;;;20.40;14.27;;;14.30;92.60;;;;;;6159419;23;20024;-81
2021/09/05 07:49:42;;;;;;;21.40;14.95;;;14.40;92.60;;;;;;6160591;23;20016;-81
2021/09/05 07:52:07;;;;;;;21.25;15.20;;;14.40;92.50;;;;;;6161604;23;20013;-88
2021/09/05 07:54:33;;;;;;;19.20;13.90;;;14.50;92.60;;;;;;6160697;23;20013;-87
2021/09/05 07:56:58;;;;;;;20.02;14.40;;;14.50;92.50;;;;;;6161496;23;20442;-88
2021/09/05 07:59:24;;;;;;;20.85;14.32;;;14.50;92.40;;;;;;6162554;23;20087;-87
2021/09/05 08:01:50;;;;;;;24.65;16.73;;;14.60;92.40;;;;;;6161480;23;20559;-88
2021/09/05 08:04:15;;;;;;;19.65;14.02;;;14.60;92.80;;;;;;6162504;23;20132;-89
2021/09/05 08:06:42;;;;;;;21.35;15.88;;;14.70;92.70;;;;;;6184852;23;20051;-87
2021/09/05 08:09:08;;;;;;;20.52;14.38;;;14.70;92.80;;;;;;6190965;23;20076;-88
2021/09/05 08:11:33;;;;;;;21.15;14.15;;;14.70;92.80;;;;;;6191065;23;20012;-87
2021/09/05 08:13:59;;;;;;;22.17;15.80;;;14.80;92.80;;;;;;6191634;23;20127;-87
2021/09/05 08:16:25;;;;;;;18.88;13.45;;;14.80;93.00;;;;;;6191638;23;20356;-88
2021/09/05 08:18:51;;;;;;;26.80;18.35;;;14.90;92.80;;;;;;6191909;23;20023;-88
2021/09/05 08:21:16;;;;;;;22.17;15.63;;;14.90;93.40;;;;;;6191503;23;20071;-87
2021/09/05 08:23:42;;;;;;;20.25;15.07;;;15.00;93.00;;;;;;6191730;23;20028;-87
2021/09/05 08:26:10;;;;;;;18.08;14.25;;;15.00;92.90;;;;;;6191654;23;20017;-87
2021/09/05 08:28:36;;;;;;;20.17;15.05;;;15.00;93.20;;;;;;6191051;23;20441;-87
2021/09/05 08:31:02;;;;;;;18.15;13.65;;;15.10;92.90;;;;;;6191279;23;20013;-86
2021/09/05 08:33:28;;;;;;;17.50;13.25;;;15.10;92.70;;;;;;6191763;23;20012;-87
2021/09/05 08:35:53;;;;;;;18.92;13.75;;;15.20;92.80;;;;;;6190440;23;20013;-87
2021/09/05 08:38:19;;;;;;;18.27;12.95;;;15.20;92.80;;;;;;6191377;23;20012;-87
2021/09/05 08:40:46;;;;;;;19.15;13.23;;;15.30;92.90;;;;;;6191394;23;20044;-87
2021/09/05 08:43:13;;;;;;;17.13;12.88;;;15.30;92.80;;;;;;6190654;23;20024;-87
2021/09/05 08:45:43;;;;;;;17.05;13.27;;;15.40;92.70;;;;;;6191204;23;20012;-87
2021/09/05 08:48:08;;;;;;;16.00;12.02;;;15.50;92.80;;;;;;6167538;23;20476;-86
2021/09/05 08:50:35;;;;;;;18.85;14.25;;;15.50;92.80;;;;;;6190317;23;20021;-87
2021/09/05 08:53:01;;;;;;;20.67;14.02;;;15.60;92.90;;;;;;6191330;23;20079;-87
2021/09/05 08:55:27;;;;;;;15.88;11.20;;;15.80;92.90;;;;;;6191362;23;20445;-87
2021/09/05 08:57:53;;;;;;;15.90;12.07;;;15.80;92.80;;;;;;6190369;23;20479;-87
2021/09/05 09:00:20;;;;;;;15.95;11.38;;;15.90;92.70;;;;;;6191785;23;20016;-88
2021/09/05 09:02:53;;;;;;;14.68;11.57;;;16.00;92.60;;;;;;6191361;23;20035;-88
2021/09/05 09:05:30;;;;;;;14.68;11.50;;;16.10;92.50;;;;;;6190587;23;20088;-88
2021/09/05 09:08:02;;;;;;;14.93;12.30;;;16.20;92.40;;;;;;6191351;23;20016;-88
2021/09/05 09:10:31;;;;;;;16.25;12.02;;;16.30;92.40;;;;;;6217241;23;20024;-88
2021/09/05 09:12:58;;;;;;;15.35;12.23;;;16.40;92.30;;;;;;6191444;23;20005;-88
2021/09/05 09:15:27;;;;;;;15.38;11.15;;;16.50;92.20;;;;;;6191214;23;20016;-88
2021/09/05 09:17:55;;;;;;;17.77;11.82;;;16.60;92.20;;;;;;6190301;23;20020;-89
2021/09/05 09:20:41;;;;;;;14.15;10.52;;;16.70;92.30;;;;;;6190446;23;20055;-89
2021/09/05 09:23:08;;;;;;;15.95;11.82;;;16.80;92.10;;;;;;6191129;23;20341;-89
2021/09/05 09:25:34;;;;;;;15.43;11.93;;;16.90;92.00;;;;;;6190111;23;20021;-89
2021/09/05 09:28:01;;;;;;;14.60;11.05;;;17.00;92.00;;;;;;6191410;23;20095;-89
2021/09/05 09:30:34;;;;;;;17.30;11.85;;;17.00;91.90;;;;;;6191212;23;20063;-90
2021/09/05 09:33:00;;;;;;;12.65;10.10;;;17.10;91.90;;;;;;6213377;23;20055;-89
2021/09/05 09:35:26;;;;;;;15.63;12.32;;;17.20;91.90;;;;;;6190703;23;20017;-92
2021/09/05 09:37:51;;;;;;;20.08;12.77;;;17.30;91.70;;;;;;6190823;23;20099;-89
2021/09/05 09:40:26;;;;;;;14.25;10.32;;;17.40;91.60;;;;;;6189943;23;20017;-89
2021/09/05 09:42:52;;;;;;;13.13;10.07;;;17.40;91.50;;;;;;6190656;23;20032;-89
2021/09/05 09:45:18;;;;;;;15.52;10.90;;;17.60;91.60;;;;;;6191401;23;20429;-87
2021/09/05 09:47:51;;;;;;;17.25;11.63;;;17.70;91.60;;;;;;6189657;23;20465;-88
2021/09/05 09:50:20;;;;;;;16.42;10.93;;;17.70;91.50;;;;;;6190856;23;20009;-88
2021/09/05 09:52:46;;;;;;;13.88;10.68;;;17.80;91.60;;;;;;6189647;23;20344;-89
2021/09/05 09:55:12;;;;;;;14.25;11.02;;;17.90;91.70;;;;;;6190630;23;20091;-88
2021/09/05 09:57:38;;;;;;;14.98;11.98;;;18.00;91.60;;;;;;6190518;23;20023;-88
2021/09/05 10:00:05;;;;;;;14.02;10.52;;;18.10;91.40;;;;;;6190055;23;20095;-90
2021/09/05 10:02:39;;;;;;;16.88;12.30;;;18.10;91.50;;;;;;6190782;23;20013;-89
2021/09/05 10:05:05;;;;;;;19.30;12.55;;;18.30;91.40;;;;;;6187171;23;20017;-89
2021/09/05 10:07:33;;;;;;;19.92;13.50;;;18.30;91.30;;;;;;6160143;23;20084;-89
2021/09/05 10:10:02;;;;;;;16.23;11.48;;;18.40;91.20;;;;;;6161025;23;20453;-88
2021/09/05 10:12:30;;;;;;;16.08;12.02;;;18.40;91.20;;;;;;6160689;23;20023;-88
2021/09/05 10:14:58;;;;;;;16.02;11.45;;;18.60;91.30;;;;;;6160288;23;20457;-89
2021/09/05 10:17:27;;;;;;;13.07;10.32;;;18.60;91.30;;;;;;6188015;23;20319;-88
2021/09/05 10:19:54;;;;;;;13.93;10.50;;;18.70;91.40;;;;;;6160077;23;20464;-88
2021/09/05 10:22:23;;;;;;;13.30;10.40;;;18.80;91.40;;;;;;6159762;23;20499;-89
2021/09/05 10:24:51;;;;;;;17.58;11.65;;;18.90;91.40;;;;;;6160692;23;20021;-89
2021/09/05 10:27:28;;;;;;;13.07;10.23;;;19.00;91.20;;;;;;6160635;23;20024;-89
2021/09/05 10:30:10;;;;;;;14.65;9.93;;;19.10;91.20;;;;;;6159565;23;20468;-89
2021/09/05 10:32:57;;;;;;;14.75;11.05;;;19.20;91.10;;;;;;6161103;23;20017;-88
2021/09/05 10:35:26;;;;;;;16.90;12.48;;;19.30;91.00;;;;;;6160334;23;20028;-89
2021/09/05 10:38:10;;;;;;;18.75;13.35;;;19.40;90.80;;;;;;6160840;23;20340;-91
2021/09/05 10:40:52;;;;;;;16.20;12.23;;;19.40;90.00;;;;;;6160664;23;20458;-89
2021/09/05 10:43:20;;;;;;;15.30;12.13;;;19.50;90.60;;;;;;6160607;23;20013;-89
2021/09/05 10:45:53;;;;;;;18.55;11.07;;;19.60;90.60;;;;;;6159990;23;20044;-88
2021/09/05 10:48:28;;;;;;;13.43;10.05;;;19.60;90.60;;;;;;6160503;23;20021;-88
2021/09/05 10:51:08;;;;;;;14.05;10.13;;;19.70;90.80;;;;;;6159400;23;20017;-88
2021/09/05 10:53:36;;;;;;;15.50;11.48;;;19.80;90.80;;;;;;6160642;23;20021;-89
2021/09/05 10:56:08;;;;;;;20.48;13.75;;;19.90;90.40;;;;;;6160295;23;20024;-90
2021/09/05 10:58:39;;;;;;;17.97;12.27;;;20.00;89.80;;;;;;6161112;23;20092;-90
2021/09/05 11:01:20;;;;;;;16.85;11.68;;;20.00;89.30;;;;;;6162025;23;20020;-89
2021/09/05 11:06:40;;;;;;;15.88;10.73;;;20.10;90.20;;;;;;6177908;23;20025;-89
2021/09/05 11:09:21;;;;;;;15.40;10.90;;;20.30;90.40;;;;;;6187127;23;20024;-89
2021/09/05 11:12:18;;;;;;;19.60;12.68;;;20.40;90.10;;;;;;6186752;23;20048;-89
2021/09/05 11:14:47;;;;;;;15.25;11.88;;;20.50;88.70;;;;;;6188474;23;20028;-90
2021/09/05 11:17:15;;;;;;;16.23;11.40;;;20.50;89.20;;;;;;6187293;23;20020;-90
2021/09/05 11:19:48;;;;;;;15.55;10.85;;;20.50;88.50;;;;;;6188324;23;20049;-90
2021/09/05 11:22:18;;;;;;;13.52;10.63;;;20.60;89.00;;;;;;6187798;23;20020;-89
2021/09/05 11:25:04;;;;;;;13.75;10.23;;;20.70;89.60;;;;;;6186964;23;20040;-91
2021/09/05 11:27:29;;;;;;;12.75;10.18;;;20.80;89.70;;;;;;6187538;23;20446;-90
2021/09/05 11:30:07;;;;;;;16.02;10.32;;;20.80;89.50;;;;;;6187932;23;20020;-90
2021/09/05 11:32:33;;;;;;;12.75;9.80;;;20.90;89.10;;;;;;6182015;23;20017;-90
2021/09/05 11:34:59;;;;;;;14.13;10.10;;;21.00;89.40;;;;;;6187090;23;20042;-90
2021/09/05 11:37:41;;;;;;;16.42;11.30;;;21.10;88.50;;;;;;6187237;23;20096;-90
2021/09/05 11:40:15;;;;;;;17.25;10.55;;;21.20;86.80;;;;;;6186198;23;20327;-89
2021/09/05 11:42:49;;;;;;;15.98;11.00;;;21.20;87.10;;;;;;6186800;23;20017;-92
2021/09/05 13:24:36;;;;;;;10.18;7.30;;;23.10;81.90;;;;;;5944410;23;20019;-93
2021/09/05 13:30:22;;;;;;;12.68;7.57;;;23.30;82.90;;;;;;4950151;28;20103;-96
2021/09/05 13:33:26;;;;;;;11.18;7.10;;;23.30;82.90;;;;;;5718309;23;20042;-96
2021/09/05 13:36:12;;;;;;;10.68;7.93;;;23.40;82.70;;;;;;5109500;23;20036;-96
2021/09/05 14:01:36;;;;;;;9.35;7.03;;;23.60;81.90;;;;;;5236864;23;20059;-95
2021/09/05 14:04:02;;;;;;;10.13;6.97;;;23.70;81.70;;;;;;4924189;29;20052;-92
2021/09/05 14:06:27;;;;;;;9.73;6.32;;;23.80;81.20;;;;;;4923917;29;20464;-93
2021/09/05 14:08:53;;;;;;;10.18;6.55;;;23.90;81.30;;;;;;4925152;29;20138;-93
2021/09/05 14:11:19;;;;;;;11.38;6.60;;;23.90;79.50;;;;;;4925608;29;20085;-93
2021/09/05 14:13:44;;;;;;;9.45;6.53;;;23.90;79.20;;;;;;4924068;29;20058;-92
2021/09/05 14:16:10;;;;;;;9.98;6.18;;;23.90;79.90;;;;;;4925257;29;20044;-93
2021/09/05 14:18:36;;;;;;;11.07;6.30;;;24.00;80.20;;;;;;4924041;29;20488;-89
2021/09/05 14:21:03;;;;;;;9.25;6.35;;;24.00;76.10;;;;;;4921981;29;20403;-87
2021/09/05 14:23:29;;;;;;;8.50;6.00;;;24.00;78.10;;;;;;4921202;29;20095;-85
2021/09/05 14:25:54;;;;;;;9.48;6.50;;;24.00;78.20;;;;;;4921460;29;20440;-85
2021/09/05 14:28:45;;;;;;;9.35;6.18;;;24.10;79.20;;;;;;4919043;29;20048;-86
2021/09/05 14:31:12;;;;;;;9.10;6.18;;;24.10;79.00;;;;;;4939065;29;20130;-87
2021/09/05 14:55:02;;;;;;;8.85;5.93;;;24.30;79.30;;;;;;4922879;29;20056;-93
2021/09/05 14:57:29;;;;;;;9.63;5.85;;;24.30;79.60;;;;;;4923996;29;20056;-92
2021/09/05 14:59:57;;;;;;;9.45;6.13;;;24.40;79.50;;;;;;4923443;29;20380;-92
2021/09/05 15:02:27;;;;;;;8.88;6.00;;;24.40;79.70;;;;;;4921996;29;20058;-92